Flight Track Log - Related Links

Times and Time Zones

All times are in EDT time to prevent confusion due to time zone crossing. See the UAL4588 flight status page for this flight to view local times or setup timezone preferences in your user account.

Time Position Orientation Groundspeed Altitude Reporting Facility
EDT Latitude Longitude Course Direction KTS km/h meters Rate Location/Type
Mon 13:15:20 37.5500 -77.3167 38° Northeast 171 317 579  Level Potomac TRACON
Mon 13:16:20 37.5833 -77.2667 50° Northeast 195 360 1,189 589 Climbing Potomac TRACON
Mon 13:16:50 37.6114 -77.2408 36° Northeast 218 404 1,463 610 Climbing Washington Center
Mon 13:17:50 37.6558 -77.1842 45° Northeast 256 475 2,103 579 Climbing Washington Center
Mon 13:18:50 37.7111 -77.1169 44° Northeast 268 496 2,621 427 Climbing Washington Center
Mon 13:19:00 37.7992 -77.0008 38° Northeast  Level FlightAware Approximate
Mon 13:19:50 37.7639 -77.0444 47° Northeast 279 517 2,957  Level Washington Center
Mon 13:20:00 37.8606 -76.9395 38° Northeast  Level FlightAware Approximate
Mon 13:20:50 37.8172 -76.9639 50° Northeast 285 528 3,505  Level Washington Center
Mon 13:21:50 37.8725 -76.8703 53° Northeast 306 566 3,840 335 Climbing Washington Center
Mon 13:22:50 37.9419 -76.7844 44° Northeast 325 602 4,176 335 Climbing Washington Center
Mon 13:23:50 38.0283 -76.7175 31° Northeast 345 639 4,511 320 Climbing Washington Center
Mon 13:24:50 38.1144 -76.6447 34° Northeast 361 668 4,816 305 Climbing Washington Center
Mon 13:25:50 38.1861 -76.5428 48° Northeast 371 687 5,121 183 Climbing Washington Center
Mon 13:26:50 38.2619 -76.4353 48° Northeast 381 705 5,182 30 Climbing Washington Center
Mon 13:27:50 38.3708 -76.3889 18° North 393 727 5,182  Level Washington Center
Mon 13:28:50 38.4814 -76.3661 North 388 719 5,182  Level Washington Center
Mon 13:29:50 38.5942 -76.3461 North 393 727 5,182  Level Washington Center
Mon 13:30:50 38.7025 -76.3258 North 393 727 5,182  Level Washington Center
Mon 13:31:50 38.8069 -76.2922 14° North 393 727 5,182  Level Washington Center
Mon 13:32:50 38.8992 -76.2158 33° Northeast 382 708 5,182 -15 Level Washington Center
Mon 13:33:50 38.9956 -76.1364 33° Northeast 389 721 5,151 -15 Descending Washington Center
Mon 13:34:50 39.0856 -76.0517 36° Northeast 395 732 5,151  Level Washington Center
Mon 13:35:50 39.1775 -75.9692 35° Northeast 400 740 5,151  Level Washington Center
Mon 13:36:50 39.2714 -75.8864 34° Northeast 405 750 5,151  Level Washington Center
Mon 13:37:50 39.3633 -75.8036 35° Northeast 405 750 5,151 15 Level Washington Center
Mon 13:38:50 39.4550 -75.7206 35° Northeast 405 750 5,182 15 Climbing Washington Center
Mon 13:39:50 39.5469 -75.6400 34° Northeast 405 750 5,182  Level Washington Center
Mon 13:40:50 39.6364 -75.5619 34° Northeast 405 750 5,182  Level Washington Center
Mon 13:41:50 39.7281 -75.4781 35° Northeast 405 750 5,182 -76 Level Washington Center
Mon 13:42:50 39.8175 -75.3969 35° Northeast 400 740 5,029 -229 Descending Washington Center
Mon 13:43:50 39.8903 -75.3292 36° Northeast 400 740 4,724 -396 Descending Washington Center
Mon 13:44:50 39.9839 -75.2394 36° Northeast 395 732 4,237 -518 Descending Washington Center
Mon 13:45:50 40.0606 -75.1469 43° Northeast 381 705 3,688 -408 Descending Washington Center
Mon 13:47:00 40.1500 -75.0333 44° Northeast 355 658 3,353 -281 Descending New York TRACON
Mon 13:48:00 40.2167 -74.9667 37° Northeast 304 563 3,078 -381 Descending New York TRACON
Mon 13:49:00 40.2667 -74.8833 52° Northeast 282 523 2,591 -465 Descending New York TRACON
Mon 13:49:54 40.3167 -74.8167 45° Northeast 269 499 2,195 -385 Descending New York TRACON
Mon 13:50:54 40.3667 -74.7500 45° Northeast 265 491 1,859 -320 Descending New York TRACON
Mon 13:51:54 40.4167 -74.6833 45° Northeast 278 515 1,554 -305 Descending New York TRACON
Mon 13:52:54 40.4833 -74.6333 30° Northeast 276 512 1,250 -213 Descending New York TRACON
Mon 13:53:54 40.5500 -74.5833 30° Northeast 264 489 1,128 -176 Descending New York TRACON
Mon 13:54:48 40.6000 -74.5167 45° Northeast 255 472 914 -112 Descending New York TRACON
Mon 13:55:48 40.6500 -74.4500 45° Northeast 252 467 914 -91 Level New York TRACON
Mon 13:56:48 40.7000 -74.3833 45° Northeast 229 425 732 -183 Descending New York TRACON

Login

Don't have an account? Register now (free) for customized features, flight alerts, and more!